Potomac, Montana
Current Conditions -  °F | °C
As of 10:53 AM on Thursday 30 Oct 2014 (Local Time) from KMSO Reporting Station
Overcast Overcast  
Wind Chill: 42°   Ceiling: 8000
Heat Index: 42°   Visibility: 9mi
Dew Point: 41°   Wind: 3mph
Humidity: 96%   Direction: 280°W
Pressure: 30.25"   Gusts: NA
Location:  46.8727°N, 113.587°W
Report Text: KMSO 301653Z 28003KT 9SM FEW004 OVC080 06/05 A3025 RMK AO2 SLP261 T00560050
Loading
Personal Weather Stations






























Interactive Weather Map New forecast layout! Learn more

10-Day Weather Forecast

Advertisements
Track Severe Weather on mobile